sensor_id;sensor_type;location;lat;lon;timestamp;P1;durP1;ratioP1;P2;durP2;ratioP2
1136;SDS011;557;48.466;7.950;2023-02-07T00:00:24;5.07;;;2.50;;
1136;SDS011;557;48.466;7.950;2023-02-07T00:03:11;5.27;;;3.10;;
1136;SDS011;557;48.466;7.950;2023-02-07T00:06:03;5.20;;;3.03;;
1136;SDS011;557;48.466;7.950;2023-02-07T00:08:51;4.13;;;2.70;;
1136;SDS011;557;48.466;7.950;2023-02-07T00:11:39;6.13;;;3.17;;
1136;SDS011;557;48.466;7.950;2023-02-07T00:14:29;4.30;;;2.93;;
1136;SDS011;557;48.466;7.950;2023-02-07T00:17:16;5.27;;;2.73;;
1136;SDS011;557;48.466;7.950;2023-02-07T00:20:04;4.20;;;2.53;;
1136;SDS011;557;48.466;7.950;2023-02-07T00:26:41;3.83;;;2.00;;
1136;SDS011;557;48.466;7.950;2023-02-07T00:29:29;4.70;;;2.40;;
1136;SDS011;557;48.466;7.950;2023-02-07T00:32:18;4.47;;;2.50;;
1136;SDS011;557;48.466;7.950;2023-02-07T00:35:06;4.00;;;2.53;;
1136;SDS011;557;48.466;7.950;2023-02-07T00:37:54;5.20;;;2.90;;
1136;SDS011;557;48.466;7.950;2023-02-07T00:40:41;4.00;;;2.80;;
1136;SDS011;557;48.466;7.950;2023-02-07T00:43:28;4.50;;;3.10;;
1136;SDS011;557;48.466;7.950;2023-02-07T00:46:18;4.47;;;2.67;;
1136;SDS011;557;48.466;7.950;2023-02-07T00:49:05;4.40;;;2.63;;
1136;SDS011;557;48.466;7.950;2023-02-07T00:51:53;3.60;;;2.77;;
1136;SDS011;557;48.466;7.950;2023-02-07T00:54:40;4.27;;;2.53;;
1136;SDS011;557;48.466;7.950;2023-02-07T00:57:27;3.93;;;2.40;;
1136;SDS011;557;48.466;7.950;2023-02-07T01:00:15;3.90;;;2.80;;
1136;SDS011;557;48.466;7.950;2023-02-07T01:03:04;4.83;;;2.30;;
1136;SDS011;557;48.466;7.950;2023-02-07T01:05:51;2.80;;;2.17;;
1136;SDS011;557;48.466;7.950;2023-02-07T01:08:40;5.10;;;3.40;;
1136;SDS011;557;48.466;7.950;2023-02-07T01:11:27;4.80;;;2.43;;
1136;SDS011;557;48.466;7.950;2023-02-07T01:14:15;4.53;;;2.27;;
1136;SDS011;557;48.466;7.950;2023-02-07T01:17:02;4.53;;;3.20;;
1136;SDS011;557;48.466;7.950;2023-02-07T01:19:51;3.57;;;2.77;;
1136;SDS011;557;48.466;7.950;2023-02-07T01:22:42;3.17;;;2.83;;
1136;SDS011;557;48.466;7.950;2023-02-07T01:25:29;5.00;;;2.93;;
1136;SDS011;557;48.466;7.950;2023-02-07T01:28:17;4.77;;;3.07;;
1136;SDS011;557;48.466;7.950;2023-02-07T01:31:07;3.97;;;2.97;;
1136;SDS011;557;48.466;7.950;2023-02-07T01:33:56;3.13;;;2.77;;
1136;SDS011;557;48.466;7.950;2023-02-07T01:36:46;5.23;;;3.47;;
1136;SDS011;557;48.466;7.950;2023-02-07T01:39:33;4.80;;;2.60;;
1136;SDS011;557;48.466;7.950;2023-02-07T01:42:22;3.57;;;2.97;;
1136;SDS011;557;48.466;7.950;2023-02-07T01:48:19;3.60;;;3.27;;
1136;SDS011;557;48.466;7.950;2023-02-07T01:51:09;4.77;;;3.90;;
1136;SDS011;557;48.466;7.950;2023-02-07T01:53:59;4.20;;;3.60;;
1136;SDS011;557;48.466;7.950;2023-02-07T01:56:51;3.70;;;3.40;;
1136;SDS011;557;48.466;7.950;2023-02-07T01:59:41;4.50;;;3.60;;
1136;SDS011;557;48.466;7.950;2023-02-07T02:02:30;4.10;;;3.53;;
1136;SDS011;557;48.466;7.950;2023-02-07T02:05:19;4.63;;;4.23;;
1136;SDS011;557;48.466;7.950;2023-02-07T02:08:08;5.50;;;5.00;;
1136;SDS011;557;48.466;7.950;2023-02-07T02:11:05;5.57;;;5.17;;
1136;SDS011;557;48.466;7.950;2023-02-07T02:14:05;4.80;;;4.43;;
1136;SDS011;557;48.466;7.950;2023-02-07T02:17:05;5.07;;;4.57;;
1136;SDS011;557;48.466;7.950;2023-02-07T02:20:12;5.10;;;4.30;;
1136;SDS011;557;48.466;7.950;2023-02-07T02:23:18;4.60;;;4.20;;
1136;SDS011;557;48.466;7.950;2023-02-07T02:26:36;4.97;;;4.50;;
1136;SDS011;557;48.466;7.950;2023-02-07T02:29:40;5.27;;;4.40;;
1136;SDS011;557;48.466;7.950;2023-02-07T02:36:22;5.07;;;4.57;;
1136;SDS011;557;48.466;7.950;2023-02-07T02:39:20;5.03;;;4.53;;
1136;SDS011;557;48.466;7.950;2023-02-07T02:42:15;5.83;;;4.93;;
1136;SDS011;557;48.466;7.950;2023-02-07T02:45:07;4.70;;;4.30;;
1136;SDS011;557;48.466;7.950;2023-02-07T02:47:58;4.53;;;4.13;;
1136;SDS011;557;48.466;7.950;2023-02-07T02:50:47;4.83;;;4.43;;
1136;SDS011;557;48.466;7.950;2023-02-07T02:53:36;9.53;;;4.20;;
1136;SDS011;557;48.466;7.950;2023-02-07T02:56:36;5.20;;;4.70;;
1136;SDS011;557;48.466;7.950;2023-02-07T02:59:45;4.60;;;4.20;;
1136;SDS011;557;48.466;7.950;2023-02-07T03:02:49;4.87;;;4.40;;
1136;SDS011;557;48.466;7.950;2023-02-07T03:05:49;8.23;;;4.97;;
1136;SDS011;557;48.466;7.950;2023-02-07T03:08:50;7.23;;;5.43;;
1136;SDS011;557;48.466;7.950;2023-02-07T03:11:48;5.60;;;5.20;;
1136;SDS011;557;48.466;7.950;2023-02-07T03:14:44;5.73;;;5.13;;
1136;SDS011;557;48.466;7.950;2023-02-07T03:17:39;7.40;;;6.40;;
1136;SDS011;557;48.466;7.950;2023-02-07T03:20:33;6.13;;;5.20;;
1136;SDS011;557;48.466;7.950;2023-02-07T03:23:23;6.90;;;5.43;;
1136;SDS011;557;48.466;7.950;2023-02-07T03:26:13;5.80;;;5.23;;
1136;SDS011;557;48.466;7.950;2023-02-07T03:29:01;6.33;;;5.03;;
1136;SDS011;557;48.466;7.950;2023-02-07T03:31:53;7.50;;;5.50;;
1136;SDS011;557;48.466;7.950;2023-02-07T03:34:44;6.07;;;4.97;;
1136;SDS011;557;48.466;7.950;2023-02-07T03:37:38;5.40;;;4.70;;
1136;SDS011;557;48.466;7.950;2023-02-07T03:40:29;6.67;;;4.70;;
1136;SDS011;557;48.466;7.950;2023-02-07T03:43:23;8.43;;;5.40;;
1136;SDS011;557;48.466;7.950;2023-02-07T03:46:13;7.77;;;5.30;;
1136;SDS011;557;48.466;7.950;2023-02-07T03:49:01;8.00;;;5.57;;
1136;SDS011;557;48.466;7.950;2023-02-07T03:51:48;8.23;;;5.13;;
1136;SDS011;557;48.466;7.950;2023-02-07T03:54:36;6.23;;;5.03;;
1136;SDS011;557;48.466;7.950;2023-02-07T03:57:23;6.63;;;4.90;;
1136;SDS011;557;48.466;7.950;2023-02-07T04:00:12;6.80;;;5.93;;
1136;SDS011;557;48.466;7.950;2023-02-07T04:03:00;6.90;;;5.03;;
1136;SDS011;557;48.466;7.950;2023-02-07T04:05:48;7.23;;;5.77;;
1136;SDS011;557;48.466;7.950;2023-02-07T04:08:35;8.57;;;6.10;;
1136;SDS011;557;48.466;7.950;2023-02-07T04:11:22;7.27;;;6.10;;
1136;SDS011;557;48.466;7.950;2023-02-07T04:14:10;7.83;;;6.07;;
1136;SDS011;557;48.466;7.950;2023-02-07T04:16:58;10.90;;;8.10;;
1136;SDS011;557;48.466;7.950;2023-02-07T04:19:46;11.40;;;7.07;;
1136;SDS011;557;48.466;7.950;2023-02-07T04:22:33;6.90;;;5.50;;
1136;SDS011;557;48.466;7.950;2023-02-07T04:25:20;5.00;;;4.60;;
1136;SDS011;557;48.466;7.950;2023-02-07T04:28:08;7.63;;;5.10;;
1136;SDS011;557;48.466;7.950;2023-02-07T04:30:55;8.07;;;5.67;;
1136;SDS011;557;48.466;7.950;2023-02-07T04:33:44;8.77;;;6.10;;
1136;SDS011;557;48.466;7.950;2023-02-07T04:36:31;10.53;;;6.43;;
1136;SDS011;557;48.466;7.950;2023-02-07T04:39:19;7.40;;;6.63;;
1136;SDS011;557;48.466;7.950;2023-02-07T04:42:06;7.27;;;6.23;;
1136;SDS011;557;48.466;7.950;2023-02-07T04:44:53;10.33;;;7.10;;
1136;SDS011;557;48.466;7.950;2023-02-07T04:47:41;7.30;;;6.60;;
1136;SDS011;557;48.466;7.950;2023-02-07T04:50:30;10.00;;;6.40;;
1136;SDS011;557;48.466;7.950;2023-02-07T04:53:17;8.93;;;6.67;;
1136;SDS011;557;48.466;7.950;2023-02-07T04:56:05;6.27;;;5.77;;
1136;SDS011;557;48.466;7.950;2023-02-07T04:58:52;9.10;;;6.03;;
1136;SDS011;557;48.466;7.950;2023-02-07T05:01:40;6.70;;;6.07;;
1136;SDS011;557;48.466;7.950;2023-02-07T05:04:27;9.30;;;6.80;;
1136;SDS011;557;48.466;7.950;2023-02-07T05:07:16;12.80;;;6.93;;
1136;SDS011;557;48.466;7.950;2023-02-07T05:10:04;7.10;;;6.50;;
1136;SDS011;557;48.466;7.950;2023-02-07T05:12:51;10.77;;;7.07;;
1136;SDS011;557;48.466;7.950;2023-02-07T05:15:40;9.70;;;7.50;;
1136;SDS011;557;48.466;7.950;2023-02-07T05:18:29;7.93;;;6.67;;
1136;SDS011;557;48.466;7.950;2023-02-07T05:21:17;8.47;;;6.33;;
1136;SDS011;557;48.466;7.950;2023-02-07T05:24:06;8.50;;;6.57;;
1136;SDS011;557;48.466;7.950;2023-02-07T05:26:53;9.97;;;6.30;;
1136;SDS011;557;48.466;7.950;2023-02-07T05:29:40;9.70;;;6.80;;
1136;SDS011;557;48.466;7.950;2023-02-07T05:32:28;7.10;;;6.00;;
1136;SDS011;557;48.466;7.950;2023-02-07T05:35:33;7.60;;;5.10;;
1136;SDS011;557;48.466;7.950;2023-02-07T05:38:22;6.43;;;5.10;;
1136;SDS011;557;48.466;7.950;2023-02-07T05:41:11;8.87;;;5.67;;
1136;SDS011;557;48.466;7.950;2023-02-07T05:43:58;6.23;;;5.50;;
1136;SDS011;557;48.466;7.950;2023-02-07T05:46:45;7.23;;;6.07;;
1136;SDS011;557;48.466;7.950;2023-02-07T05:49:32;9.50;;;5.50;;
1136;SDS011;557;48.466;7.950;2023-02-07T05:52:20;8.10;;;5.73;;
1136;SDS011;557;48.466;7.950;2023-02-07T05:55:07;11.97;;;6.70;;
1136;SDS011;557;48.466;7.950;2023-02-07T05:57:57;7.40;;;5.03;;
1136;SDS011;557;48.466;7.950;2023-02-07T06:00:44;7.80;;;6.40;;
1136;SDS011;557;48.466;7.950;2023-02-07T06:03:33;8.27;;;5.33;;
1136;SDS011;557;48.466;7.950;2023-02-07T06:06:20;9.37;;;5.80;;
1136;SDS011;557;48.466;7.950;2023-02-07T06:09:08;8.50;;;5.30;;
1136;SDS011;557;48.466;7.950;2023-02-07T06:11:55;9.07;;;5.90;;
1136;SDS011;557;48.466;7.950;2023-02-07T06:14:44;9.47;;;5.93;;
1136;SDS011;557;48.466;7.950;2023-02-07T06:17:31;9.77;;;6.63;;
1136;SDS011;557;48.466;7.950;2023-02-07T06:20:19;7.37;;;5.17;;
1136;SDS011;557;48.466;7.950;2023-02-07T06:23:07;9.57;;;5.83;;
1136;SDS011;557;48.466;7.950;2023-02-07T06:25:54;7.90;;;5.87;;
1136;SDS011;557;48.466;7.950;2023-02-07T06:28:41;10.03;;;5.40;;
1136;SDS011;557;48.466;7.950;2023-02-07T06:31:30;6.17;;;5.17;;
1136;SDS011;557;48.466;7.950;2023-02-07T06:34:17;7.50;;;5.20;;
1136;SDS011;557;48.466;7.950;2023-02-07T06:37:05;7.10;;;4.63;;
1136;SDS011;557;48.466;7.950;2023-02-07T06:39:52;7.80;;;4.80;;
1136;SDS011;557;48.466;7.950;2023-02-07T06:42:40;9.47;;;4.43;;
1136;SDS011;557;48.466;7.950;2023-02-07T06:45:28;8.97;;;5.47;;
1136;SDS011;557;48.466;7.950;2023-02-07T06:48:17;8.27;;;5.47;;
1136;SDS011;557;48.466;7.950;2023-02-07T06:51:04;6.70;;;4.93;;
1136;SDS011;557;48.466;7.950;2023-02-07T06:53:52;10.87;;;5.20;;
1136;SDS011;557;48.466;7.950;2023-02-07T06:56:39;12.27;;;7.60;;
1136;SDS011;557;48.466;7.950;2023-02-07T06:59:26;7.87;;;5.60;;
1136;SDS011;557;48.466;7.950;2023-02-07T07:02:14;9.77;;;5.80;;
1136;SDS011;557;48.466;7.950;2023-02-07T07:05:03;11.10;;;6.40;;
1136;SDS011;557;48.466;7.950;2023-02-07T07:07:51;9.53;;;6.33;;
1136;SDS011;557;48.466;7.950;2023-02-07T07:10:38;13.83;;;7.83;;
1136;SDS011;557;48.466;7.950;2023-02-07T07:13:26;7.53;;;5.57;;
1136;SDS011;557;48.466;7.950;2023-02-07T07:16:13;11.27;;;5.40;;
1136;SDS011;557;48.466;7.950;2023-02-07T07:19:00;9.60;;;5.33;;
1136;SDS011;557;48.466;7.950;2023-02-07T07:21:49;9.43;;;5.90;;
1136;SDS011;557;48.466;7.950;2023-02-07T07:24:36;15.80;;;6.50;;
1136;SDS011;557;48.466;7.950;2023-02-07T07:27:24;10.23;;;4.93;;
1136;SDS011;557;48.466;7.950;2023-02-07T07:30:12;12.33;;;6.10;;
1136;SDS011;557;48.466;7.950;2023-02-07T07:32:59;9.00;;;4.50;;
1136;SDS011;557;48.466;7.950;2023-02-07T07:35:47;10.33;;;6.17;;
1136;SDS011;557;48.466;7.950;2023-02-07T07:38:35;10.00;;;4.87;;
1136;SDS011;557;48.466;7.950;2023-02-07T07:41:23;8.30;;;5.07;;
1136;SDS011;557;48.466;7.950;2023-02-07T07:44:10;8.40;;;5.60;;
1136;SDS011;557;48.466;7.950;2023-02-07T07:46:58;12.90;;;5.87;;
1136;SDS011;557;48.466;7.950;2023-02-07T07:49:45;11.60;;;5.90;;
1136;SDS011;557;48.466;7.950;2023-02-07T07:52:32;10.60;;;5.47;;
1136;SDS011;557;48.466;7.950;2023-02-07T07:55:21;10.20;;;5.87;;
1136;SDS011;557;48.466;7.950;2023-02-07T07:58:08;10.60;;;6.80;;
1136;SDS011;557;48.466;7.950;2023-02-07T08:00:56;11.33;;;7.53;;
1136;SDS011;557;48.466;7.950;2023-02-07T08:03:46;8.93;;;5.80;;
1136;SDS011;557;48.466;7.950;2023-02-07T08:06:33;16.97;;;7.40;;
1136;SDS011;557;48.466;7.950;2023-02-07T08:09:21;10.70;;;6.40;;
1136;SDS011;557;48.466;7.950;2023-02-07T08:12:10;18.57;;;7.40;;
1136;SDS011;557;48.466;7.950;2023-02-07T08:14:57;11.37;;;6.77;;
1136;SDS011;557;48.466;7.950;2023-02-07T08:17:45;15.67;;;7.07;;
1136;SDS011;557;48.466;7.950;2023-02-07T08:20:32;14.13;;;7.70;;
1136;SDS011;557;48.466;7.950;2023-02-07T08:23:21;12.17;;;7.23;;
1136;SDS011;557;48.466;7.950;2023-02-07T08:26:09;15.90;;;8.50;;
1136;SDS011;557;48.466;7.950;2023-02-07T08:28:57;15.10;;;9.00;;
1136;SDS011;557;48.466;7.950;2023-02-07T08:31:45;17.43;;;8.30;;
1136;SDS011;557;48.466;7.950;2023-02-07T08:34:33;15.90;;;7.30;;
1136;SDS011;557;48.466;7.950;2023-02-07T08:37:21;11.73;;;7.30;;
1136;SDS011;557;48.466;7.950;2023-02-07T08:40:09;14.67;;;7.90;;
1136;SDS011;557;48.466;7.950;2023-02-07T08:42:57;15.00;;;7.53;;
1136;SDS011;557;48.466;7.950;2023-02-07T08:45:47;15.60;;;8.10;;
1136;SDS011;557;48.466;7.950;2023-02-07T08:48:34;16.80;;;8.13;;
1136;SDS011;557;48.466;7.950;2023-02-07T08:51:22;13.97;;;8.13;;
1136;SDS011;557;48.466;7.950;2023-02-07T08:54:09;11.90;;;6.90;;
1136;SDS011;557;48.466;7.950;2023-02-07T08:56:56;12.10;;;7.73;;
1136;SDS011;557;48.466;7.950;2023-02-07T08:59:44;14.50;;;8.13;;
1136;SDS011;557;48.466;7.950;2023-02-07T09:02:32;12.30;;;7.00;;
1136;SDS011;557;48.466;7.950;2023-02-07T09:05:20;12.93;;;8.07;;
1136;SDS011;557;48.466;7.950;2023-02-07T09:08:07;13.00;;;7.70;;
1136;SDS011;557;48.466;7.950;2023-02-07T09:10:54;14.63;;;7.97;;
1136;SDS011;557;48.466;7.950;2023-02-07T09:13:42;12.00;;;7.13;;
1136;SDS011;557;48.466;7.950;2023-02-07T09:16:31;10.70;;;7.83;;
1136;SDS011;557;48.466;7.950;2023-02-07T09:19:19;10.73;;;7.07;;
1136;SDS011;557;48.466;7.950;2023-02-07T09:22:07;19.57;;;8.90;;
1136;SDS011;557;48.466;7.950;2023-02-07T09:24:54;15.10;;;8.73;;
1136;SDS011;557;48.466;7.950;2023-02-07T09:27:42;19.07;;;8.90;;
1136;SDS011;557;48.466;7.950;2023-02-07T09:30:29;15.57;;;8.60;;
1136;SDS011;557;48.466;7.950;2023-02-07T09:33:17;13.30;;;8.80;;
1136;SDS011;557;48.466;7.950;2023-02-07T09:36:06;12.77;;;8.00;;
1136;SDS011;557;48.466;7.950;2023-02-07T09:39:04;12.67;;;7.93;;
1136;SDS011;557;48.466;7.950;2023-02-07T09:41:54;13.47;;;8.90;;
1136;SDS011;557;48.466;7.950;2023-02-07T09:44:52;13.90;;;8.80;;
1136;SDS011;557;48.466;7.950;2023-02-07T09:47:43;15.77;;;9.70;;
1136;SDS011;557;48.466;7.950;2023-02-07T09:50:33;12.40;;;8.90;;
1136;SDS011;557;48.466;7.950;2023-02-07T09:53:30;12.10;;;7.80;;
1136;SDS011;557;48.466;7.950;2023-02-07T09:56:25;14.83;;;8.90;;
1136;SDS011;557;48.466;7.950;2023-02-07T09:59:17;14.27;;;9.70;;
1136;SDS011;557;48.466;7.950;2023-02-07T10:02:13;14.10;;;9.23;;
1136;SDS011;557;48.466;7.950;2023-02-07T10:05:06;14.00;;;9.70;;
1136;SDS011;557;48.466;7.950;2023-02-07T10:08:01;16.33;;;10.10;;
1136;SDS011;557;48.466;7.950;2023-02-07T10:11:04;13.83;;;9.83;;
1136;SDS011;557;48.466;7.950;2023-02-07T10:14:05;13.07;;;9.60;;
1136;SDS011;557;48.466;7.950;2023-02-07T10:17:12;13.70;;;9.47;;
1136;SDS011;557;48.466;7.950;2023-02-07T10:20:19;15.33;;;11.40;;
1136;SDS011;557;48.466;7.950;2023-02-07T10:23:19;14.67;;;11.30;;
1136;SDS011;557;48.466;7.950;2023-02-07T10:26:26;14.40;;;10.43;;
1136;SDS011;557;48.466;7.950;2023-02-07T10:32:35;13.73;;;11.77;;
1136;SDS011;557;48.466;7.950;2023-02-07T10:35:26;11.57;;;10.33;;
1136;SDS011;557;48.466;7.950;2023-02-07T10:38:20;13.60;;;11.70;;
1136;SDS011;557;48.466;7.950;2023-02-07T10:41:18;12.70;;;10.70;;
1136;SDS011;557;48.466;7.950;2023-02-07T10:44:16;13.50;;;10.40;;
1136;SDS011;557;48.466;7.950;2023-02-07T10:47:05;16.00;;;11.90;;
1136;SDS011;557;48.466;7.950;2023-02-07T10:49:53;14.80;;;11.73;;
1136;SDS011;557;48.466;7.950;2023-02-07T10:52:42;14.87;;;12.00;;
1136;SDS011;557;48.466;7.950;2023-02-07T10:55:36;13.40;;;12.00;;
1136;SDS011;557;48.466;7.950;2023-02-07T10:58:25;15.90;;;12.97;;
1136;SDS011;557;48.466;7.950;2023-02-07T11:01:26;12.60;;;11.37;;
1136;SDS011;557;48.466;7.950;2023-02-07T11:04:21;14.07;;;12.57;;
1136;SDS011;557;48.466;7.950;2023-02-07T11:07:12;14.77;;;11.67;;
1136;SDS011;557;48.466;7.950;2023-02-07T11:13:11;14.23;;;12.47;;
1136;SDS011;557;48.466;7.950;2023-02-07T11:16:00;14.17;;;12.17;;
1136;SDS011;557;48.466;7.950;2023-02-07T11:18:55;13.57;;;12.37;;
1136;SDS011;557;48.466;7.950;2023-02-07T11:21:45;12.43;;;11.33;;
1136;SDS011;557;48.466;7.950;2023-02-07T11:24:34;14.67;;;13.17;;
1136;SDS011;557;48.466;7.950;2023-02-07T11:27:23;15.50;;;13.90;;
1136;SDS011;557;48.466;7.950;2023-02-07T11:30:14;14.80;;;13.40;;
1136;SDS011;557;48.466;7.950;2023-02-07T11:33:09;13.70;;;12.50;;
1136;SDS011;557;48.466;7.950;2023-02-07T11:36:10;17.17;;;13.70;;
1136;SDS011;557;48.466;7.950;2023-02-07T11:39:11;14.50;;;13.10;;
1136;SDS011;557;48.466;7.950;2023-02-07T11:42:09;17.13;;;14.40;;
1136;SDS011;557;48.466;7.950;2023-02-07T11:44:58;15.07;;;13.77;;
1136;SDS011;557;48.466;7.950;2023-02-07T11:47:50;15.00;;;13.70;;
1136;SDS011;557;48.466;7.950;2023-02-07T11:50:40;18.00;;;16.30;;
1136;SDS011;557;48.466;7.950;2023-02-07T11:53:33;16.40;;;15.00;;
1136;SDS011;557;48.466;7.950;2023-02-07T11:56:24;16.27;;;14.70;;
1136;SDS011;557;48.466;7.950;2023-02-07T11:59:16;16.33;;;14.83;;
1136;SDS011;557;48.466;7.950;2023-02-07T12:02:11;16.83;;;15.43;;
1136;SDS011;557;48.466;7.950;2023-02-07T12:05:07;16.70;;;15.27;;
1136;SDS011;557;48.466;7.950;2023-02-07T12:08:01;16.43;;;14.93;;
1136;SDS011;557;48.466;7.950;2023-02-07T12:10:56;16.73;;;15.33;;
1136;SDS011;557;48.466;7.950;2023-02-07T12:13:46;14.27;;;12.90;;
1136;SDS011;557;48.466;7.950;2023-02-07T12:16:40;15.90;;;14.60;;
1136;SDS011;557;48.466;7.950;2023-02-07T12:19:32;16.27;;;14.87;;
1136;SDS011;557;48.466;7.950;2023-02-07T12:22:22;16.77;;;15.37;;
1136;SDS011;557;48.466;7.950;2023-02-07T12:25:15;15.83;;;14.43;;
1136;SDS011;557;48.466;7.950;2023-02-07T12:28:12;15.40;;;14.10;;
1136;SDS011;557;48.466;7.950;2023-02-07T12:31:11;15.13;;;13.73;;
1136;SDS011;557;48.466;7.950;2023-02-07T12:34:07;18.07;;;14.43;;
1136;SDS011;557;48.466;7.950;2023-02-07T12:37:02;16.20;;;14.80;;
1136;SDS011;557;48.466;7.950;2023-02-07T12:39:59;15.23;;;13.73;;
1136;SDS011;557;48.466;7.950;2023-02-07T12:42:51;17.23;;;13.70;;
1136;SDS011;557;48.466;7.950;2023-02-07T12:45:47;15.40;;;14.07;;
1136;SDS011;557;48.466;7.950;2023-02-07T12:48:56;16.00;;;14.60;;
1136;SDS011;557;48.466;7.950;2023-02-07T12:51:47;16.53;;;14.83;;
1136;SDS011;557;48.466;7.950;2023-02-07T12:54:46;17.63;;;16.03;;
1136;SDS011;557;48.466;7.950;2023-02-07T12:57:49;16.23;;;14.93;;
1136;SDS011;557;48.466;7.950;2023-02-07T13:00:50;16.53;;;15.03;;
1136;SDS011;557;48.466;7.950;2023-02-07T13:03:51;15.27;;;14.03;;
1136;SDS011;557;48.466;7.950;2023-02-07T13:06:53;17.73;;;16.17;;
1136;SDS011;557;48.466;7.950;2023-02-07T13:09:53;16.13;;;14.87;;
1136;SDS011;557;48.466;7.950;2023-02-07T13:12:50;17.40;;;15.70;;
1136;SDS011;557;48.466;7.950;2023-02-07T13:15:44;18.30;;;16.43;;
1136;SDS011;557;48.466;7.950;2023-02-07T13:18:41;16.53;;;15.23;;
1136;SDS011;557;48.466;7.950;2023-02-07T13:21:35;16.97;;;15.60;;
1136;SDS011;557;48.466;7.950;2023-02-07T13:24:29;17.77;;;16.07;;
1136;SDS011;557;48.466;7.950;2023-02-07T13:27:21;16.97;;;15.67;;
1136;SDS011;557;48.466;7.950;2023-02-07T13:30:11;17.20;;;15.70;;
1136;SDS011;557;48.466;7.950;2023-02-07T13:33:03;17.87;;;16.40;;
1136;SDS011;557;48.466;7.950;2023-02-07T13:36:14;16.07;;;14.67;;
1136;SDS011;557;48.466;7.950;2023-02-07T13:39:12;18.10;;;16.60;;
1136;SDS011;557;48.466;7.950;2023-02-07T13:42:07;18.17;;;16.77;;
1136;SDS011;557;48.466;7.950;2023-02-07T13:45:03;17.63;;;16.20;;
1136;SDS011;557;48.466;7.950;2023-02-07T13:48:00;18.80;;;17.10;;
1136;SDS011;557;48.466;7.950;2023-02-07T13:50:58;17.80;;;16.40;;
1136;SDS011;557;48.466;7.950;2023-02-07T13:53:54;18.57;;;17.07;;
1136;SDS011;557;48.466;7.950;2023-02-07T13:56:54;18.93;;;17.47;;
1136;SDS011;557;48.466;7.950;2023-02-07T14:00:05;19.63;;;18.03;;
1136;SDS011;557;48.466;7.950;2023-02-07T14:03:03;18.43;;;16.73;;
1136;SDS011;557;48.466;7.950;2023-02-07T14:05:53;20.10;;;18.40;;
1136;SDS011;557;48.466;7.950;2023-02-07T14:09:09;19.73;;;17.77;;
1136;SDS011;557;48.466;7.950;2023-02-07T14:12:03;18.83;;;17.33;;
1136;SDS011;557;48.466;7.950;2023-02-07T14:14:53;19.63;;;18.20;;
1136;SDS011;557;48.466;7.950;2023-02-07T14:21:23;18.33;;;17.03;;
1136;SDS011;557;48.466;7.950;2023-02-07T14:24:31;19.37;;;17.97;;
1136;SDS011;557;48.466;7.950;2023-02-07T14:27:24;20.23;;;18.87;;
1136;SDS011;557;48.466;7.950;2023-02-07T14:30:20;20.40;;;18.90;;
1136;SDS011;557;48.466;7.950;2023-02-07T14:33:13;20.97;;;19.37;;
1136;SDS011;557;48.466;7.950;2023-02-07T14:36:03;19.70;;;18.30;;
1136;SDS011;557;48.466;7.950;2023-02-07T14:39:21;21.23;;;19.60;;
1136;SDS011;557;48.466;7.950;2023-02-07T14:42:16;21.80;;;20.20;;
1136;SDS011;557;48.466;7.950;2023-02-07T14:45:14;19.20;;;17.90;;
1136;SDS011;557;48.466;7.950;2023-02-07T14:48:05;19.07;;;17.63;;
1136;SDS011;557;48.466;7.950;2023-02-07T14:51:15;21.00;;;19.30;;
1136;SDS011;557;48.466;7.950;2023-02-07T14:54:06;20.67;;;18.90;;
1136;SDS011;557;48.466;7.950;2023-02-07T14:57:01;20.33;;;18.80;;
1136;SDS011;557;48.466;7.950;2023-02-07T14:59:57;20.80;;;19.20;;
1136;SDS011;557;48.466;7.950;2023-02-07T15:02:50;19.63;;;18.07;;
1136;SDS011;557;48.466;7.950;2023-02-07T15:05:46;20.37;;;18.67;;
1136;SDS011;557;48.466;7.950;2023-02-07T15:08:35;20.00;;;18.47;;
1136;SDS011;557;48.466;7.950;2023-02-07T15:11:23;19.23;;;17.73;;
1136;SDS011;557;48.466;7.950;2023-02-07T15:14:17;19.80;;;18.20;;
1136;SDS011;557;48.466;7.950;2023-02-07T15:17:09;20.20;;;18.30;;
1136;SDS011;557;48.466;7.950;2023-02-07T15:19:56;19.67;;;17.97;;
1136;SDS011;557;48.466;7.950;2023-02-07T15:22:45;20.10;;;18.23;;
1136;SDS011;557;48.466;7.950;2023-02-07T15:25:34;19.40;;;17.83;;
1136;SDS011;557;48.466;7.950;2023-02-07T15:28:26;18.73;;;16.90;;
1136;SDS011;557;48.466;7.950;2023-02-07T15:31:14;17.80;;;16.40;;
1136;SDS011;557;48.466;7.950;2023-02-07T15:34:04;19.17;;;17.47;;
1136;SDS011;557;48.466;7.950;2023-02-07T15:36:59;18.03;;;16.47;;
1136;SDS011;557;48.466;7.950;2023-02-07T15:39:58;17.60;;;16.20;;
1136;SDS011;557;48.466;7.950;2023-02-07T15:42:50;18.67;;;17.17;;
1136;SDS011;557;48.466;7.950;2023-02-07T15:45:38;19.07;;;17.13;;
1136;SDS011;557;48.466;7.950;2023-02-07T15:48:26;18.50;;;16.70;;
1136;SDS011;557;48.466;7.950;2023-02-07T15:51:18;17.43;;;15.93;;
1136;SDS011;557;48.466;7.950;2023-02-07T15:54:11;17.23;;;15.67;;
1136;SDS011;557;48.466;7.950;2023-02-07T15:57:02;16.30;;;14.60;;
1136;SDS011;557;48.466;7.950;2023-02-07T15:59:50;15.47;;;14.17;;
1136;SDS011;557;48.466;7.950;2023-02-07T16:02:40;17.47;;;15.80;;
1136;SDS011;557;48.466;7.950;2023-02-07T16:05:32;16.57;;;14.83;;
1136;SDS011;557;48.466;7.950;2023-02-07T16:08:28;16.97;;;15.30;;
1136;SDS011;557;48.466;7.950;2023-02-07T16:14:23;13.97;;;12.63;;
1136;SDS011;557;48.466;7.950;2023-02-07T16:17:20;16.43;;;13.77;;
1136;SDS011;557;48.466;7.950;2023-02-07T16:20:12;12.93;;;11.83;;
1136;SDS011;557;48.466;7.950;2023-02-07T16:23:01;14.33;;;12.53;;
1136;SDS011;557;48.466;7.950;2023-02-07T16:25:53;13.20;;;11.53;;
1136;SDS011;557;48.466;7.950;2023-02-07T16:28:55;13.57;;;12.20;;
1136;SDS011;557;48.466;7.950;2023-02-07T16:31:42;15.50;;;13.17;;
1136;SDS011;557;48.466;7.950;2023-02-07T16:34:30;14.93;;;13.40;;
1136;SDS011;557;48.466;7.950;2023-02-07T16:37:17;16.03;;;13.80;;
1136;SDS011;557;48.466;7.950;2023-02-07T16:40:05;14.30;;;12.90;;
1136;SDS011;557;48.466;7.950;2023-02-07T16:42:55;14.43;;;12.97;;
1136;SDS011;557;48.466;7.950;2023-02-07T16:45:43;19.23;;;12.73;;
1136;SDS011;557;48.466;7.950;2023-02-07T16:48:30;14.33;;;12.77;;
1136;SDS011;557;48.466;7.950;2023-02-07T16:51:18;14.87;;;13.33;;
1136;SDS011;557;48.466;7.950;2023-02-07T16:54:05;17.73;;;13.10;;
1136;SDS011;557;48.466;7.950;2023-02-07T16:56:53;13.63;;;12.17;;
1136;SDS011;557;48.466;7.950;2023-02-07T16:59:45;14.73;;;12.73;;
1136;SDS011;557;48.466;7.950;2023-02-07T17:02:32;16.53;;;12.63;;
1136;SDS011;557;48.466;7.950;2023-02-07T17:05:20;20.93;;;12.50;;
1136;SDS011;557;48.466;7.950;2023-02-07T17:08:09;12.83;;;11.57;;
1136;SDS011;557;48.466;7.950;2023-02-07T17:11:00;16.50;;;11.77;;
1136;SDS011;557;48.466;7.950;2023-02-07T17:13:50;14.60;;;12.47;;
1136;SDS011;557;48.466;7.950;2023-02-07T17:16:38;15.40;;;12.23;;
1136;SDS011;557;48.466;7.950;2023-02-07T17:19:26;14.63;;;12.13;;
1136;SDS011;557;48.466;7.950;2023-02-07T17:22:13;14.50;;;12.13;;
1136;SDS011;557;48.466;7.950;2023-02-07T17:25:01;14.20;;;12.70;;
1136;SDS011;557;48.466;7.950;2023-02-07T17:27:48;13.00;;;11.47;;
1136;SDS011;557;48.466;7.950;2023-02-07T17:30:36;16.23;;;11.93;;
1136;SDS011;557;48.466;7.950;2023-02-07T17:33:27;17.07;;;13.23;;
1136;SDS011;557;48.466;7.950;2023-02-07T17:36:14;14.63;;;10.70;;
1136;SDS011;557;48.466;7.950;2023-02-07T17:39:02;18.87;;;13.00;;
1136;SDS011;557;48.466;7.950;2023-02-07T17:41:49;12.60;;;11.20;;
1136;SDS011;557;48.466;7.950;2023-02-07T17:44:37;18.73;;;16.30;;
1136;SDS011;557;48.466;7.950;2023-02-07T17:47:24;19.20;;;14.63;;
1136;SDS011;557;48.466;7.950;2023-02-07T17:50:15;18.60;;;14.30;;
1136;SDS011;557;48.466;7.950;2023-02-07T17:53:04;18.57;;;13.70;;
1136;SDS011;557;48.466;7.950;2023-02-07T17:55:52;18.20;;;13.27;;
1136;SDS011;557;48.466;7.950;2023-02-07T17:58:39;15.47;;;11.90;;
1136;SDS011;557;48.466;7.950;2023-02-07T18:01:26;18.23;;;11.73;;
1136;SDS011;557;48.466;7.950;2023-02-07T18:04:14;16.47;;;11.50;;
1136;SDS011;557;48.466;7.950;2023-02-07T18:07:03;17.63;;;10.60;;